Cumminsville, Kentucky
Current Conditions -  °F | °C
As of 6:15 AM on Saturday 25 Oct 2014 (Local Time) from KFGX Reporting Station
Clear Clear  
Wind Chill: 40°   Ceiling: Unl
Heat Index: 44°   Visibility: 10mi
Dew Point: 40°   Wind: 7mph
Humidity: 86%   Direction: 200°SSW
Pressure: 30.04"   Gusts: NA
Location:  38.6516°N, 84.0942°W
Report Text: KFGX 251015Z AUTO 20006KT 10SM CLR 07/05 A3004 RMK AO2 T00670045
Loading
Personal Weather Stations






























Interactive Weather Map
Tropical Storm Tracking
New forecast layout! Learn more

10-Day Weather Forecast

Advertisements
Track Severe Weather on mobile